createdAt,value
2017-04-05T00:00:19.656Z,14.13
2017-04-05T00:00:41.362Z,13.93
2017-04-05T00:01:43.947Z,13.85
2017-04-05T00:02:15.201Z,13.92
2017-04-05T00:02:36.915Z,13.88
2017-04-05T00:02:58.700Z,13.82
2017-04-05T00:03:25.172Z,13.87
2017-04-05T00:03:46.868Z,13.86
2017-04-05T00:04:08.648Z,13.91
2017-04-05T00:04:39.891Z,13.92
2017-04-05T00:05:01.583Z,13.91
2017-04-05T00:05:23.369Z,13.90
2017-04-05T00:05:49.842Z,13.94
2017-04-05T00:06:11.536Z,13.93
2017-04-05T00:06:33.243Z,14.02
2017-04-05T00:06:55.021Z,14.10
2017-04-05T00:07:16.709Z,14.13
2017-04-05T00:07:47.964Z,14.12
2017-04-05T00:08:09.732Z,14.09
2017-04-05T00:08:40.980Z,14.17
2017-04-05T00:09:02.677Z,14.07
2017-04-05T00:09:24.459Z,13.97
2017-04-05T00:09:50.945Z,13.91
2017-04-05T00:10:12.649Z,13.90
2017-04-05T00:10:44.024Z,13.94
2017-04-05T00:11:05.726Z,13.93
2017-04-05T00:12:08.326Z,13.90
2017-04-05T00:12:30.022Z,13.93
2017-04-05T00:12:56.503Z,13.72
2017-04-05T00:13:18.195Z,13.66
2017-04-05T00:13:39.977Z,13.76
2017-04-05T00:14:52.121Z,13.88
2017-04-05T00:15:13.848Z,13.79
2017-04-05T00:15:35.559Z,13.71
2017-04-05T00:15:57.281Z,13.67
2017-04-05T00:16:19.072Z,13.65
2017-04-05T00:16:40.785Z,13.67
2017-04-05T00:17:02.451Z,13.66
2017-04-05T00:17:24.150Z,13.74
2017-04-05T00:17:45.931Z,13.85
2017-04-05T00:18:07.621Z,13.88
2017-04-05T00:18:29.314Z,13.98
2017-04-05T00:18:51.039Z,13.95
2017-04-05T00:19:12.811Z,14.00
2017-04-05T00:19:44.066Z,13.93
2017-04-05T00:20:05.761Z,13.92
2017-04-05T00:20:27.552Z,13.68
2017-04-05T00:20:54.035Z,13.61
2017-04-05T00:21:15.756Z,13.71
2017-04-05T00:21:37.446Z,13.80
2017-04-05T00:21:59.255Z,13.77
2017-04-05T00:22:20.998Z,13.72
2017-04-05T00:22:42.700Z,13.73
2017-04-05T00:23:09.254Z,13.63
2017-04-05T00:23:30.944Z,13.65
2017-04-05T00:23:52.643Z,13.64
2017-04-05T00:24:19.119Z,13.65
2017-04-05T00:24:40.920Z,13.58
2017-04-05T00:25:12.180Z,13.55
2017-04-05T00:25:33.870Z,13.63
2017-04-05T00:25:55.663Z,13.61
2017-04-05T00:26:22.136Z,13.58
2017-04-05T00:26:43.960Z,13.61
2017-04-05T00:27:46.552Z,13.51
2017-04-05T00:28:08.355Z,13.46
2017-04-05T00:29:10.863Z,13.36
2017-04-05T00:29:37.430Z,13.43
2017-04-05T00:30:03.917Z,13.38
2017-04-05T00:30:25.626Z,13.41
2017-04-05T00:30:52.214Z,13.46
2017-04-05T00:31:13.960Z,13.51
2017-04-05T00:31:35.662Z,13.52
2017-04-05T00:32:11.686Z,13.44
2017-04-05T00:32:34.024Z,13.49
2017-04-05T00:33:05.281Z,13.54
2017-04-05T00:33:27.070Z,13.53
2017-04-05T00:33:58.321Z,13.43
2017-04-05T00:34:20.027Z,13.49
2017-04-05T00:34:41.811Z,13.41
2017-04-05T00:35:08.304Z,13.41
2017-04-05T00:35:30.002Z,13.51
2017-04-05T00:36:32.618Z,13.59
2017-04-05T00:36:54.321Z,13.60
2017-04-05T00:37:16.028Z,13.60
2017-04-05T00:37:42.744Z,13.62
2017-04-05T00:38:04.442Z,13.58
2017-04-05T00:38:26.171Z,13.57
2017-04-05T00:38:52.708Z,13.56
2017-04-05T00:39:14.402Z,13.57
2017-04-05T00:39:40.992Z,13.52
2017-04-05T00:40:02.766Z,13.43
2017-04-05T00:40:38.792Z,13.40
2017-04-05T00:41:01.327Z,13.51
2017-04-05T00:41:23.031Z,13.53
2017-04-05T00:41:54.304Z,13.44
2017-04-05T00:42:16.144Z,13.39
2017-04-05T00:42:37.846Z,13.41
2017-04-05T00:42:59.551Z,13.48
2017-04-05T00:43:21.285Z,13.33
2017-04-05T00:43:57.434Z,13.29
2017-04-05T00:44:19.847Z,13.31
2017-04-05T00:44:46.416Z,13.36
2017-04-05T00:45:17.749Z,13.44
2017-04-05T00:45:39.525Z,13.43
2017-04-05T00:46:16.684Z,13.38
2017-04-05T00:46:38.901Z,13.31
2017-04-05T00:47:10.236Z,13.37
2017-04-05T00:47:31.945Z,13.38
2017-04-05T00:47:53.655Z,13.40
2017-04-05T00:48:20.139Z,13.45
2017-04-05T00:48:41.934Z,13.49
2017-04-05T00:49:13.195Z,13.51
2017-04-05T00:49:34.897Z,13.48
2017-04-05T00:50:10.934Z,13.58
2017-04-05T00:50:33.270Z,13.58
2017-04-05T00:50:54.958Z,13.44
2017-04-05T00:51:30.987Z,13.35
2017-04-05T00:51:54.514Z,13.31
2017-04-05T00:52:25.762Z,13.32
2017-04-05T00:52:47.594Z,13.25
2017-04-05T00:53:09.292Z,13.36
2017-04-05T00:53:30.997Z,13.22
2017-04-05T00:53:52.689Z,13.08
2017-04-05T00:54:19.237Z,13.14
2017-04-05T00:54:40.948Z,13.19
2017-04-05T00:55:12.206Z,13.10
2017-04-05T00:55:34.011Z,13.17
2017-04-05T00:56:10.065Z,13.22
2017-04-05T00:56:32.323Z,13.24
2017-04-05T00:57:03.662Z,13.14
2017-04-05T00:57:25.413Z,13.14
2017-04-05T00:57:47.120Z,13.15
2017-04-05T00:58:13.679Z,13.08
2017-04-05T00:58:35.408Z,13.12
2017-04-05T00:59:11.435Z,13.06
2017-04-05T00:59:33.757Z,13.09
2017-04-05T00:59:55.548Z,13.06
2017-04-05T01:00:22.110Z,13.18
2017-04-05T01:00:43.911Z,13.16
2017-04-05T01:01:15.246Z,13.36
2017-04-05T01:01:37.041Z,13.34
2017-04-05T01:02:08.404Z,13.33
2017-04-05T01:02:30.237Z,13.35
2017-04-05T01:03:01.565Z,13.28
2017-04-05T01:03:23.269Z,13.16
2017-04-05T01:03:45.013Z,13.12
2017-04-05T01:04:11.584Z,12.96
2017-04-05T01:04:33.373Z,12.94
2017-04-05T01:05:04.715Z,12.90
2017-04-05T01:05:26.460Z,13.08
2017-04-05T01:05:52.946Z,13.21
2017-04-05T01:06:14.648Z,13.17
2017-04-05T01:06:41.310Z,13.11
2017-04-05T01:07:03.031Z,13.05
2017-04-05T01:07:24.745Z,12.90
2017-04-05T01:07:46.447Z,12.74
2017-04-05T01:08:08.280Z,12.76
2017-04-05T01:08:29.991Z,12.79
2017-04-05T01:08:51.692Z,12.91
2017-04-05T01:09:13.379Z,12.88
2017-04-05T01:09:44.717Z,12.92
2017-04-05T01:10:06.411Z,13.01
2017-04-05T01:10:37.663Z,13.04
2017-04-05T01:10:59.474Z,13.09
2017-04-05T01:11:35.477Z,13.14
2017-04-05T01:11:57.723Z,13.29
2017-04-05T01:12:24.312Z,13.26
2017-04-05T01:12:46.019Z,13.27
2017-04-05T01:13:07.765Z,13.19
2017-04-05T01:13:34.358Z,13.18
2017-04-05T01:13:56.058Z,13.22
2017-04-05T01:14:17.831Z,13.18
2017-04-05T01:14:44.358Z,13.06
2017-04-05T01:15:06.051Z,12.96
2017-04-05T01:15:32.599Z,12.83
2017-04-05T01:15:54.327Z,12.81
2017-04-05T01:16:16.031Z,12.85
2017-04-05T01:16:37.741Z,12.94
2017-04-05T01:16:59.545Z,12.96
2017-04-05T01:17:21.279Z,12.98
2017-04-05T01:17:47.738Z,13.09
2017-04-05T01:18:09.544Z,13.23
2017-04-05T01:18:40.800Z,13.18
2017-04-05T01:19:02.504Z,13.07
2017-04-05T01:19:33.838Z,12.98
2017-04-05T01:19:55.540Z,12.91
2017-04-05T01:20:26.789Z,12.98
2017-04-05T01:20:48.575Z,12.87
2017-04-05T01:21:10.270Z,12.74
2017-04-05T01:21:36.742Z,12.72
2017-04-05T01:21:58.540Z,12.71
2017-04-05T01:22:20.228Z,12.67
2017-04-05T01:22:46.704Z,12.78
2017-04-05T01:23:08.401Z,12.83
2017-04-05T01:23:30.191Z,12.84
2017-04-05T01:23:51.903Z,12.91
2017-04-05T01:24:13.606Z,12.93
2017-04-05T01:24:35.309Z,12.94
2017-04-05T01:25:37.917Z,13.06
2017-04-05T01:25:59.631Z,13.02
2017-04-05T01:26:21.332Z,13.04
2017-04-05T01:26:52.677Z,13.17
2017-04-05T01:27:14.407Z,13.24
2017-04-05T01:27:45.663Z,13.28
2017-04-05T01:28:07.464Z,13.27
2017-04-05T01:28:29.164Z,13.18
2017-04-05T01:29:00.408Z,13.09
2017-04-05T01:29:22.151Z,13.16
2017-04-05T01:29:43.860Z,13.24
2017-04-05T01:30:15.141Z,13.22
2017-04-05T01:30:36.960Z,13.11
2017-04-05T01:30:58.645Z,13.10
2017-04-05T01:31:20.342Z,13.12
2017-04-05T01:31:42.061Z,13.16
2017-04-05T01:32:03.838Z,13.12
2017-04-05T01:32:30.313Z,13.03
2017-04-05T01:32:52.016Z,12.90
2017-04-05T01:33:13.812Z,12.78
2017-04-05T01:33:35.527Z,12.86
2017-04-05T01:33:57.227Z,12.76
2017-04-05T01:34:18.951Z,12.76
2017-04-05T01:34:45.523Z,12.71
2017-04-05T01:35:07.221Z,12.82
2017-04-05T01:35:28.923Z,12.93
2017-04-05T01:35:50.652Z,12.96
2017-04-05T01:36:12.428Z,13.02
2017-04-05T01:36:38.981Z,13.11
2017-04-05T01:37:00.670Z,12.78
2017-04-05T01:37:27.227Z,12.38
2017-04-05T01:37:48.923Z,12.00
2017-04-05T01:38:10.632Z,11.73
2017-04-05T01:38:37.188Z,11.63
2017-04-05T01:38:58.901Z,11.73
2017-04-05T01:39:25.392Z,11.91
2017-04-05T01:39:47.084Z,12.08
2017-04-05T01:40:13.652Z,12.09
2017-04-05T01:40:35.347Z,11.98
2017-04-05T01:41:37.929Z,12.15
2017-04-05T01:41:59.623Z,12.22
2017-04-05T01:42:35.679Z,12.42
2017-04-05T01:42:57.962Z,12.52
2017-04-05T01:43:19.678Z,12.61
2017-04-05T01:43:46.158Z,12.70
2017-04-05T01:44:07.851Z,12.75
2017-04-05T01:44:29.650Z,12.70
2017-04-05T01:44:56.120Z,12.70
2017-04-05T01:45:17.808Z,12.72
2017-04-05T01:45:39.601Z,12.72
2017-04-05T01:46:06.090Z,12.73
2017-04-05T01:46:27.811Z,12.86
2017-04-05T01:47:03.834Z,12.90
2017-04-05T01:47:26.286Z,12.95
2017-04-05T01:47:48.015Z,12.91
2017-04-05T01:48:09.731Z,12.88
2017-04-05T01:48:31.521Z,12.77
2017-04-05T01:48:53.234Z,12.68
2017-04-05T01:49:24.492Z,12.68
2017-04-05T01:49:46.273Z,12.61
2017-04-05T01:50:22.300Z,12.54
2017-04-05T01:50:44.500Z,12.54
2017-04-05T01:51:06.290Z,12.52
2017-04-05T01:51:27.988Z,12.54
2017-04-05T01:51:49.695Z,12.41
2017-04-05T01:52:11.391Z,12.36
2017-04-05T01:52:37.973Z,12.51
2017-04-05T01:52:59.664Z,12.56
2017-04-05T01:53:21.386Z,12.63
2017-04-05T01:53:47.948Z,12.68
2017-04-05T01:54:11.921Z,12.70
2017-04-05T01:54:38.346Z,12.68
2017-04-05T01:55:00.142Z,12.71
2017-04-05T01:56:02.730Z,12.60
2017-04-05T01:56:24.434Z,12.61
2017-04-05T01:56:50.912Z,12.66
2017-04-05T01:57:12.734Z,12.63
2017-04-05T01:57:34.458Z,12.53
2017-04-05T01:58:10.508Z,12.42
2017-04-05T01:58:32.799Z,12.45
2017-04-05T01:58:54.551Z,12.52
2017-04-05T01:59:30.588Z,12.58
2017-04-05T01:59:55.523Z,12.56
2017-04-05T02:00:17.224Z,12.50
2017-04-05T02:00:53.250Z,12.23
2017-04-05T02:01:15.598Z,12.25
2017-04-05T02:01:37.336Z,12.23
2017-04-05T02:02:03.815Z,12.29
2017-04-05T02:02:25.609Z,12.32
2017-04-05T02:02:47.315Z,12.19
2017-04-05T02:03:09.030Z,12.21
2017-04-05T02:03:33.168Z,12.15
2017-04-05T02:03:54.993Z,12.29
2017-04-05T02:04:16.811Z,12.32
2017-04-05T02:04:48.064Z,12.34
2017-04-05T02:05:09.867Z,12.30
2017-04-05T02:05:31.707Z,12.38
2017-04-05T02:05:53.502Z,12.41
2017-04-05T02:06:15.240Z,12.38
2017-04-05T02:06:51.275Z,12.35
2017-04-05T02:07:18.415Z,12.42
2017-04-05T02:07:40.117Z,12.52
2017-04-05T02:08:16.153Z,12.54
2017-04-05T02:08:38.840Z,12.60
2017-04-05T02:09:05.320Z,12.63
2017-04-05T02:10:07.858Z,12.63
2017-04-05T02:10:37.298Z,12.72
2017-04-05T02:10:58.985Z,12.59
2017-04-05T02:11:30.255Z,12.44
2017-04-05T02:11:51.959Z,12.48
2017-04-05T02:12:50.349Z,12.48
2017-04-05T02:13:12.191Z,12.46
2017-04-05T02:13:43.450Z,12.44
2017-04-05T02:14:05.144Z,12.44
2017-04-05T02:15:21.983Z,12.02
2017-04-05T02:15:44.158Z,12.17
2017-04-05T02:16:08.813Z,12.28
2017-04-05T02:16:30.617Z,12.38
2017-04-05T02:16:54.737Z,12.32
2017-04-05T02:17:21.247Z,12.19
2017-04-05T02:17:42.954Z,12.20
2017-04-05T02:18:53.542Z,12.37
2017-04-05T02:19:24.648Z,12.36
2017-04-05T02:19:46.414Z,12.36
2017-04-05T02:20:08.240Z,12.38
2017-04-05T02:20:44.268Z,12.13
2017-04-05T02:21:06.498Z,12.18
2017-04-05T02:21:28.212Z,12.17
2017-04-05T02:21:59.460Z,12.13
2017-04-05T02:22:23.977Z,12.03
2017-04-05T02:22:50.553Z,11.98
2017-04-05T02:23:12.184Z,11.97
2017-04-05T02:23:43.456Z,12.07
2017-04-05T02:24:38.638Z,12.26
2017-04-05T02:25:00.402Z,12.26
2017-04-05T02:25:31.755Z,12.16
2017-04-05T02:25:53.488Z,12.16
2017-04-05T02:26:17.817Z,12.13
2017-04-05T02:26:39.504Z,12.00
2017-04-05T02:27:05.979Z,12.06
2017-04-05T02:27:27.805Z,12.07
2017-04-05T02:27:49.519Z,11.99
2017-04-05T02:28:15.987Z,11.96
2017-04-05T02:28:37.793Z,12.01
2017-04-05T02:29:09.113Z,12.11
2017-04-05T02:29:30.902Z,12.18
2017-04-05T02:30:02.189Z,12.07
2017-04-05T02:30:23.977Z,12.07
2017-04-05T02:30:55.248Z,12.19
2017-04-05T02:31:16.991Z,12.22
2017-04-05T02:31:43.487Z,12.18
2017-04-05T02:32:36.437Z,12.13
2017-04-05T02:32:58.229Z,12.06
2017-04-05T02:33:20.016Z,12.04
2017-04-05T02:33:46.500Z,11.97
2017-04-05T02:34:08.184Z,11.99
2017-04-05T02:34:29.894Z,11.99
2017-04-05T02:35:01.201Z,11.93
2017-04-05T02:35:22.938Z,12.00
2017-04-05T02:35:47.069Z,11.85
2017-04-05T02:36:08.883Z,11.72
2017-04-05T02:36:44.903Z,11.63
2017-04-05T02:37:07.259Z,11.69
2017-04-05T02:37:38.511Z,11.66
2017-04-05T02:38:00.307Z,11.66
2017-04-05T02:38:36.336Z,11.78
2017-04-05T02:38:58.699Z,11.86
2017-04-05T02:39:29.973Z,11.82
2017-04-05T02:39:51.667Z,11.87
2017-04-05T02:40:27.708Z,12.05
2017-04-05T02:40:50.193Z,11.98
2017-04-05T02:41:52.823Z,12.06
2017-04-05T02:42:14.616Z,11.91
2017-04-05T02:42:45.879Z,11.95
2017-04-05T02:43:07.717Z,12.04
2017-04-05T02:43:34.197Z,12.26
2017-04-05T02:43:55.889Z,12.19
2017-04-05T02:44:22.454Z,12.09
2017-04-05T02:44:44.161Z,12.04
2017-04-05T02:45:05.870Z,11.97
2017-04-05T02:45:41.909Z,11.78
2017-04-05T02:46:04.192Z,11.75
2017-04-05T02:47:06.823Z,12.02
2017-04-05T02:47:28.500Z,12.03
2017-04-05T02:47:59.777Z,12.06
2017-04-05T02:48:21.562Z,12.13
2017-04-05T02:48:48.050Z,12.24
2017-04-05T02:49:09.771Z,12.31
2017-04-05T02:49:31.579Z,12.26
2017-04-05T02:49:53.297Z,12.27
2017-04-05T02:50:14.999Z,12.23
2017-04-05T02:50:36.719Z,12.10
2017-04-05T02:51:44.005Z,12.08
2017-04-05T02:52:05.729Z,12.09
2017-04-05T02:53:08.344Z,12.17
2017-04-05T02:53:39.608Z,12.01
2017-04-05T02:54:01.343Z,11.96
2017-04-05T02:54:37.379Z,11.93
2017-04-05T02:54:59.639Z,11.89
2017-04-05T02:55:21.429Z,11.79
2017-04-05T02:55:48.007Z,11.78
2017-04-05T02:56:09.752Z,11.80
2017-04-05T02:56:43.822Z,11.96
2017-04-05T02:57:05.512Z,11.87
2017-04-05T02:57:27.225Z,11.84
2017-04-05T02:57:48.935Z,11.87
2017-04-05T02:58:56.344Z,11.88
2017-04-05T02:59:18.074Z,11.88
2017-04-05T02:59:39.845Z,11.95
2017-04-05T03:00:11.120Z,11.95
2017-04-05T03:00:32.813Z,11.96
2017-04-05T03:00:59.293Z,11.97
2017-04-05T03:01:21.048Z,11.87
2017-04-05T03:01:47.645Z,11.87
2017-04-05T03:02:09.371Z,11.78
2017-04-05T03:02:40.656Z,11.79
2017-04-05T03:03:02.437Z,11.84
2017-04-05T03:03:24.161Z,11.94
2017-04-05T03:03:45.925Z,12.00
2017-04-05T03:04:17.180Z,11.98
2017-04-05T03:04:41.554Z,11.91
2017-04-05T03:05:29.894Z,11.87
2017-04-05T03:05:51.722Z,11.82
2017-04-05T03:06:18.318Z,11.91
2017-04-05T03:06:40.107Z,11.81
2017-04-05T03:07:11.361Z,11.90
2017-04-05T03:07:33.095Z,11.96
2017-04-05T03:08:04.348Z,11.97
2017-04-05T03:08:30.838Z,11.92
2017-04-05T03:08:52.561Z,11.95
2017-04-05T03:09:14.389Z,12.04
2017-04-05T03:09:50.434Z,12.14
2017-04-05T03:10:17.608Z,12.07
2017-04-05T03:10:44.220Z,12.16
2017-04-05T03:11:05.932Z,12.13
2017-04-05T03:11:37.188Z,11.98
2017-04-05T03:11:58.900Z,12.02
2017-04-05T03:12:20.708Z,11.90
2017-04-05T03:12:47.187Z,11.94
2017-04-05T03:13:08.915Z,11.94
2017-04-05T03:13:35.524Z,11.98
2017-04-05T03:13:57.294Z,11.94
2017-04-05T03:14:19.019Z,11.77
2017-04-05T03:14:45.505Z,11.64
2017-04-05T03:15:07.189Z,11.62
2017-04-05T03:15:33.701Z,11.65
2017-04-05T03:15:55.412Z,11.82
2017-04-05T03:16:31.573Z,11.92
2017-04-05T03:16:53.878Z,11.88
2017-04-05T03:17:15.603Z,11.90
2017-04-05T03:18:18.106Z,11.88
2017-04-05T03:18:49.385Z,11.80
2017-04-05T03:19:11.159Z,11.82
2017-04-05T03:19:42.426Z,11.87
2017-04-05T03:20:04.114Z,11.85
2017-04-05T03:20:35.491Z,11.96
2017-04-05T03:20:57.213Z,11.96
2017-04-05T03:21:23.735Z,11.99
2017-04-05T03:21:45.484Z,11.94
2017-04-05T03:22:11.966Z,11.93
2017-04-05T03:22:33.674Z,12.02
2017-04-05T03:22:55.378Z,12.07
2017-04-05T03:23:26.756Z,12.10
2017-04-05T03:23:48.466Z,11.95
2017-04-05T03:24:10.181Z,11.84
2017-04-05T03:24:36.658Z,11.77
2017-04-05T03:24:58.428Z,11.84
2017-04-05T03:25:24.925Z,11.76
2017-04-05T03:25:46.644Z,11.78
2017-04-05T03:26:08.352Z,11.70
2017-04-05T03:26:44.428Z,11.66
2017-04-05T03:27:06.710Z,11.75
2017-04-05T03:27:28.429Z,11.81
2017-04-05T03:27:59.726Z,11.85
2017-04-05T03:28:21.439Z,11.67
2017-04-05T03:28:43.151Z,11.75
2017-04-05T03:29:14.529Z,11.73
2017-04-05T03:29:36.230Z,11.74
2017-04-05T03:29:58.072Z,11.81
2017-04-05T03:30:19.790Z,11.73
2017-04-05T03:30:41.576Z,11.71
2017-04-05T03:31:08.097Z,11.71
2017-04-05T03:31:29.832Z,11.56
2017-04-05T03:31:51.574Z,11.52
2017-04-05T03:32:13.307Z,11.31
2017-04-05T03:32:35.019Z,11.27
2017-04-05T03:33:11.171Z,11.56
2017-04-05T03:33:34.452Z,11.59
2017-04-05T03:34:00.952Z,11.68
2017-04-05T03:34:22.777Z,11.76
2017-04-05T03:34:44.498Z,11.80
2017-04-05T03:35:11.004Z,11.87
2017-04-05T03:35:32.706Z,11.89
2017-04-05T03:36:08.759Z,11.85
2017-04-05T03:36:30.994Z,11.80
2017-04-05T03:36:57.489Z,11.70
2017-04-05T03:37:24.026Z,11.68
2017-04-05T03:37:45.722Z,11.68
2017-04-05T03:38:12.240Z,11.61
2017-04-05T03:38:33.961Z,11.64
2017-04-05T03:39:00.505Z,11.59
2017-04-05T03:39:22.217Z,11.49
2017-04-05T03:39:48.704Z,11.13
2017-04-05T03:40:10.408Z,11.25
2017-04-05T03:40:36.966Z,11.34
2017-04-05T03:40:58.677Z,11.36
2017-04-05T03:41:25.182Z,11.32
2017-04-05T03:41:46.921Z,11.11
2017-04-05T03:42:08.689Z,11.03
2017-04-05T03:43:11.190Z,11.08
2017-04-05T03:43:47.226Z,11.04
2017-04-05T03:44:09.482Z,11.10
2017-04-05T03:44:35.972Z,10.84
2017-04-05T03:45:07.291Z,10.85
2017-04-05T03:45:29.011Z,10.84
2017-04-05T03:46:31.537Z,10.78
2017-04-05T03:46:58.017Z,10.65
2017-04-05T03:47:29.285Z,10.61
2017-04-05T03:47:51.007Z,10.57
2017-04-05T03:48:17.493Z,10.41
2017-04-05T03:48:39.209Z,10.48
2017-04-05T03:49:15.265Z,10.59
2017-04-05T03:49:37.526Z,10.62
2017-04-05T03:50:04.011Z,10.69
2017-04-05T03:50:40.062Z,10.59
2017-04-05T03:51:02.279Z,10.49
2017-04-05T03:51:24.000Z,10.41
2017-04-05T03:51:45.775Z,10.40
2017-04-05T03:52:12.251Z,10.39
2017-04-05T03:52:34.014Z,10.34
2017-04-05T03:53:00.618Z,10.43
2017-04-05T03:53:22.325Z,10.40
2017-04-05T03:53:53.577Z,10.65
2017-04-05T03:54:15.341Z,10.57
2017-04-05T03:54:37.044Z,10.54
2017-04-05T03:54:58.750Z,10.75
2017-04-05T03:55:20.476Z,10.90
2017-04-05T03:55:56.531Z,10.95
2017-04-05T03:56:19.727Z,10.98
2017-04-05T03:56:41.429Z,10.71
2017-04-05T03:57:07.964Z,10.58
2017-04-05T03:57:29.682Z,10.56
2017-04-05T03:57:51.416Z,10.40
2017-04-05T03:58:17.946Z,10.58
2017-04-05T03:58:39.664Z,10.53
2017-04-05T03:59:01.357Z,10.63
2017-04-05T03:59:27.820Z,10.48
2017-04-05T03:59:49.591Z,10.34
2017-04-05T04:00:11.284Z,10.25
2017-04-05T04:00:37.793Z,10.34
2017-04-05T04:00:59.507Z,10.52
2017-04-05T04:01:21.297Z,10.67
2017-04-05T04:01:43.003Z,10.93
2017-04-05T04:02:04.719Z,10.97
2017-04-05T04:02:26.435Z,11.12
2017-04-05T04:02:57.688Z,11.21
2017-04-05T04:03:19.394Z,11.36
2017-04-05T04:04:26.673Z,11.05
2017-04-05T04:04:48.379Z,11.00
2017-04-05T04:05:24.540Z,11.13
2017-04-05T04:05:46.815Z,11.24
2017-04-05T04:06:08.541Z,11.29
2017-04-05T04:06:39.838Z,11.40
2017-04-05T04:07:01.547Z,11.41
2017-04-05T04:07:23.244Z,11.31
2017-04-05T04:07:54.613Z,11.38
2017-04-05T04:08:16.330Z,11.46
2017-04-05T04:08:42.809Z,11.41
2017-04-05T04:09:04.519Z,11.42
2017-04-05T04:09:26.331Z,11.51
2017-04-05T04:09:57.591Z,11.48
2017-04-05T04:10:19.366Z,11.42
2017-04-05T04:10:45.900Z,11.46
2017-04-05T04:11:07.616Z,11.38
2017-04-05T04:11:43.659Z,11.38
2017-04-05T04:12:06.001Z,11.37
2017-04-05T04:12:32.493Z,11.25
2017-04-05T04:13:08.531Z,11.22
2017-04-05T04:13:30.797Z,11.24
2017-04-05T04:13:57.312Z,11.20
2017-04-05T04:14:19.097Z,11.02
2017-04-05T04:14:40.888Z,10.73
2017-04-05T04:15:43.442Z,10.61
2017-04-05T04:16:05.270Z,10.52
2017-04-05T04:17:07.823Z,10.42
2017-04-05T04:17:29.635Z,10.63
2017-04-05T04:18:00.893Z,10.88
2017-04-05T04:18:22.610Z,10.89
2017-04-05T04:18:53.920Z,11.02
2017-04-05T04:19:15.639Z,11.11
2017-04-05T04:19:44.538Z,11.21
2017-04-05T04:20:15.838Z,11.12
2017-04-05T04:20:37.642Z,11.16
2017-04-05T04:21:04.148Z,11.06
2017-04-05T04:21:25.875Z,10.83
2017-04-05T04:22:33.255Z,10.51
2017-04-05T04:22:55.067Z,10.65
2017-04-05T04:23:21.603Z,10.82
2017-04-05T04:23:43.335Z,10.89
2017-04-05T04:24:09.846Z,10.99
2017-04-05T04:24:31.625Z,11.05
2017-04-05T04:24:58.178Z,11.13
2017-04-05T04:25:20.926Z,11.16
2017-04-05T04:25:47.402Z,11.20
2017-04-05T04:26:09.105Z,10.95
2017-04-05T04:26:35.760Z,10.57
2017-04-05T04:26:57.546Z,10.42
2017-04-05T04:27:22.226Z,10.51
2017-04-05T04:27:48.636Z,10.67
2017-04-05T04:28:10.370Z,10.81
2017-04-05T04:28:46.443Z,10.96
2017-04-05T04:29:08.724Z,10.94
2017-04-05T04:29:40.033Z,10.91
2017-04-05T04:30:01.771Z,10.78
2017-04-05T04:30:28.392Z,10.78
2017-04-05T04:30:50.207Z,10.85
2017-04-05T04:31:16.845Z,10.73
2017-04-05T04:31:38.639Z,10.71
2017-04-05T04:32:05.264Z,10.72
2017-04-05T04:32:26.987Z,10.72
2017-04-05T04:32:48.850Z,10.56
2017-04-05T04:33:24.884Z,10.57
2017-04-05T04:33:48.146Z,10.65
2017-04-05T04:34:19.407Z,10.72
2017-04-05T04:34:41.238Z,10.77
2017-04-05T04:35:12.534Z,10.73
2017-04-05T04:35:34.409Z,10.40
2017-04-05T04:36:05.682Z,10.12
2017-04-05T04:36:27.513Z,9.96
2017-04-05T04:36:59.826Z,9.93
2017-04-05T04:37:21.689Z,9.96
2017-04-05T04:37:53.099Z,10.14
2017-04-05T04:38:14.882Z,10.26
2017-04-05T04:38:50.901Z,10.33
2017-04-05T04:39:13.316Z,10.45
2017-04-05T04:40:15.811Z,10.41
2017-04-05T04:40:37.540Z,10.55
2017-04-05T04:40:59.350Z,10.63
2017-04-05T04:41:30.605Z,10.62
2017-04-05T04:41:52.470Z,10.67
2017-04-05T04:42:14.316Z,10.69
2017-04-05T04:42:40.823Z,10.65
2017-04-05T04:43:02.589Z,10.74
2017-04-05T04:43:29.264Z,10.69
2017-04-05T04:43:55.781Z,10.53
2017-04-05T04:44:22.258Z,10.56
2017-04-05T04:44:44.128Z,10.58
2017-04-05T04:45:05.905Z,10.55
2017-04-05T04:45:27.823Z,10.73
2017-04-05T04:45:49.606Z,10.69
2017-04-05T04:46:20.926Z,10.72
2017-04-05T04:46:42.680Z,10.65
2017-04-05T04:47:04.387Z,10.71
2017-04-05T04:47:30.923Z,10.82
2017-04-05T04:47:52.819Z,10.74
2017-04-05T04:49:00.215Z,10.73
2017-04-05T04:49:22.031Z,10.63
2017-04-05T04:49:48.610Z,10.78
2017-04-05T04:50:10.393Z,10.85
2017-04-05T04:50:36.863Z,10.86
2017-04-05T04:50:58.594Z,10.99
2017-04-05T04:51:20.292Z,11.04
2017-04-05T04:51:46.869Z,11.05
2017-04-05T04:52:08.590Z,11.11
2017-04-05T04:52:30.335Z,11.08
2017-04-05T04:53:01.798Z,10.96
2017-04-05T04:53:23.577Z,11.04
2017-04-05T04:53:45.323Z,11.03
2017-04-05T04:54:16.658Z,10.84
2017-04-05T04:54:38.383Z,10.86
2017-04-05T04:55:04.884Z,10.82
2017-04-05T04:55:26.575Z,10.84
2017-04-05T04:56:29.105Z,10.99
2017-04-05T04:57:00.355Z,10.83
2017-04-05T04:57:22.178Z,10.80
2017-04-05T04:57:48.677Z,10.89
2017-04-05T04:58:10.402Z,11.04
2017-04-05T04:58:36.938Z,10.93
2017-04-05T04:58:58.696Z,10.89
2017-04-05T04:59:20.386Z,10.96
2017-04-05T04:59:56.560Z,11.00
2017-04-05T05:00:18.845Z,11.11
2017-04-05T05:00:45.321Z,11.11
2017-04-05T05:01:16.669Z,10.93
2017-04-05T05:01:38.382Z,10.80
2017-04-05T05:02:00.137Z,10.82
2017-04-05T05:02:26.635Z,10.70
2017-04-05T05:02:48.440Z,10.62
2017-04-05T05:03:14.940Z,10.67
2017-04-05T05:03:36.653Z,10.74
2017-04-05T05:04:07.964Z,10.92
2017-04-05T05:04:29.679Z,10.91
2017-04-05T05:05:00.931Z,10.94
2017-04-05T05:05:22.714Z,11.08
2017-04-05T05:05:58.757Z,11.04
2017-04-05T05:06:21.969Z,11.01
2017-04-05T05:06:58.130Z,11.02
2017-04-05T05:07:20.422Z,10.93
2017-04-05T05:07:46.908Z,10.88
2017-04-05T05:08:18.223Z,10.83
2017-04-05T05:08:39.941Z,10.84
2017-04-05T05:09:11.211Z,10.83
2017-04-05T05:09:32.995Z,10.81
2017-04-05T05:09:59.478Z,10.82
2017-04-05T05:10:21.192Z,10.75
2017-04-05T05:10:42.899Z,10.74
2017-04-05T05:11:04.703Z,10.85
2017-04-05T05:11:26.454Z,10.93
2017-04-05T05:11:53.018Z,10.98
2017-04-05T05:12:14.887Z,10.87
2017-04-05T05:12:41.444Z,10.96
2017-04-05T05:13:03.235Z,11.00
2017-04-05T05:13:25.020Z,10.99
2017-04-05T05:14:01.222Z,10.99
2017-04-05T05:14:23.636Z,10.98
2017-04-05T05:14:45.349Z,11.11
2017-04-05T05:15:16.688Z,11.09
2017-04-05T05:15:38.430Z,11.11
2017-04-05T05:16:00.149Z,11.11
2017-04-05T05:16:36.191Z,11.08
2017-04-05T05:16:58.555Z,11.02
2017-04-05T05:17:34.603Z,10.96
2017-04-05T05:17:56.899Z,11.05
2017-04-05T05:18:18.615Z,11.15
2017-04-05T05:18:49.965Z,11.05
2017-04-05T05:19:11.816Z,11.01
2017-04-05T05:19:33.554Z,10.92
2017-04-05T05:19:55.333Z,10.93
2017-04-05T05:20:31.374Z,10.86
2017-04-05T05:20:53.676Z,10.87
2017-04-05T05:21:15.482Z,10.90
2017-04-05T05:21:46.734Z,10.91
2017-04-05T05:22:08.470Z,11.02
2017-04-05T05:22:30.280Z,11.10
2017-04-05T05:22:58.096Z,11.27
2017-04-05T05:23:19.888Z,11.25
2017-04-05T05:23:41.671Z,11.21
2017-04-05T05:24:03.541Z,11.27
2017-04-05T05:24:25.336Z,11.32
2017-04-05T05:24:47.127Z,11.30
2017-04-05T05:25:08.881Z,11.27
2017-04-05T05:25:30.665Z,11.20
2017-04-05T05:25:52.478Z,11.16
2017-04-05T05:26:14.275Z,11.10
2017-04-05T05:26:50.318Z,11.06
2017-04-05T05:27:12.698Z,11.09
2017-04-05T05:27:34.505Z,11.10
2017-04-05T05:28:37.057Z,11.18
2017-04-05T05:29:44.428Z,10.73
2017-04-05T05:30:06.207Z,10.47
2017-04-05T05:31:23.037Z,10.20
2017-04-05T05:31:45.258Z,10.34
2017-04-05T05:32:07.058Z,10.47
2017-04-05T05:32:33.540Z,10.51
2017-04-05T05:32:55.300Z,10.62
2017-04-05T05:33:21.914Z,10.71
2017-04-05T05:33:43.690Z,10.64
2017-04-05T05:34:10.272Z,10.80
2017-04-05T05:34:32.114Z,10.83
2017-04-05T05:35:03.371Z,10.82
2017-04-05T05:35:25.096Z,10.80
2017-04-05T05:35:46.893Z,10.76
2017-04-05T05:36:13.354Z,10.82
2017-04-05T05:36:35.079Z,10.74
2017-04-05T05:36:56.883Z,10.81
2017-04-05T05:37:23.363Z,10.83
2017-04-05T05:37:45.061Z,10.77
2017-04-05T05:38:06.775Z,10.47
2017-04-05T05:38:33.332Z,10.40
2017-04-05T05:38:55.035Z,10.24
2017-04-05T05:39:16.763Z,10.31
2017-04-05T05:39:38.508Z,10.27
2017-04-05T05:40:00.293Z,10.35
2017-04-05T05:40:26.772Z,10.30
2017-04-05T05:40:48.516Z,10.24